createdAt,value
2022-08-03T00:00:27.181Z,0.95
2022-08-03T00:02:54.239Z,3.35
2022-08-03T00:05:21.476Z,1.35
2022-08-03T00:07:49.542Z,1.20
2022-08-03T00:10:17.456Z,2.88
2022-08-03T00:12:44.530Z,1.50
2022-08-03T00:15:16.705Z,2.42
2022-08-03T00:17:53.051Z,3.40
2022-08-03T00:20:22.384Z,2.70
2022-08-03T00:22:50.273Z,3.33
2022-08-03T00:25:17.851Z,2.20
2022-08-03T00:27:44.681Z,2.42
2022-08-03T00:30:11.726Z,3.83
2022-08-03T00:32:41.389Z,3.05
2022-08-03T00:35:18.043Z,2.85
2022-08-03T00:37:54.853Z,2.05
2022-08-03T00:40:22.503Z,1.80
2022-08-03T00:43:08.989Z,3.95
2022-08-03T00:45:40.402Z,3.88
2022-08-03T00:48:29.679Z,2.30
2022-08-03T00:50:57.326Z,3.55
2022-08-03T00:53:25.684Z,1.77
2022-08-03T00:55:52.872Z,2.25
2022-08-03T00:58:20.387Z,2.22
2022-08-03T01:00:47.319Z,1.50
2022-08-03T01:03:14.213Z,1.90
2022-08-03T01:06:02.616Z,2.50
2022-08-03T01:08:55.299Z,1.25
2022-08-03T01:12:23.146Z,1.85
2022-08-03T01:15:14.004Z,1.85
2022-08-03T01:17:51.074Z,1.73
2022-08-03T01:20:21.599Z,1.80
2022-08-03T01:23:54.705Z,2.10
2022-08-03T01:26:53.476Z,3.17
2022-08-03T01:29:50.575Z,2.45
2022-08-03T01:33:02.941Z,1.88
2022-08-03T01:35:14.952Z,1.63
2022-08-03T01:37:51.525Z,3.22
2022-08-03T01:40:21.461Z,1.00
2022-08-03T01:42:49.628Z,1.85
2022-08-03T01:45:18.814Z,2.97
2022-08-03T01:47:47.473Z,0.82
2022-08-03T01:50:16.001Z,1.77
2022-08-03T01:52:47.109Z,1.38
2022-08-03T01:55:17.957Z,2.63
2022-08-03T01:58:04.827Z,1.00
2022-08-03T02:00:36.549Z,1.00
2022-08-03T02:03:06.523Z,3.00
2022-08-03T02:05:35.277Z,1.75
2022-08-03T02:08:04.548Z,2.40
2022-08-03T02:10:34.941Z,1.95
2022-08-03T02:13:05.938Z,1.58
2022-08-03T02:15:34.481Z,2.97
2022-08-03T02:18:04.457Z,2.13
2022-08-03T02:20:36.728Z,4.18
2022-08-03T02:23:04.209Z,3.78
2022-08-03T02:25:33.936Z,2.33
2022-08-03T02:28:12.853Z,3.50
2022-08-03T02:30:43.816Z,6.22
2022-08-03T02:33:19.604Z,5.63
2022-08-03T02:35:49.176Z,3.25
2022-08-03T02:38:19.848Z,4.97
2022-08-03T02:40:47.281Z,4.32
2022-08-03T02:43:22.408Z,4.25
2022-08-03T02:48:25.975Z,4.38
2022-08-03T02:50:57.166Z,5.32
2022-08-03T02:53:27.464Z,6.20
2022-08-03T02:55:55.890Z,4.50
2022-08-03T02:58:25.006Z,3.78
2022-08-03T03:00:53.310Z,5.60
2022-08-03T03:03:22.415Z,6.70
2022-08-03T03:05:56.235Z,7.63
2022-08-03T03:08:28.667Z,5.57
2022-08-03T03:11:01.961Z,4.20
2022-08-03T03:13:30.687Z,5.30
2022-08-03T03:16:01.828Z,7.60
2022-08-03T03:18:31.559Z,7.32
2022-08-03T03:21:01.368Z,4.88
2022-08-03T03:23:29.431Z,7.80
2022-08-03T03:25:58.657Z,6.53
2022-08-03T03:28:26.032Z,7.10
2022-08-03T03:30:53.655Z,7.75
2022-08-03T03:33:22.441Z,5.20
2022-08-03T03:35:49.800Z,6.03
2022-08-03T03:38:16.679Z,4.13
2022-08-03T03:40:44.168Z,6.95
2022-08-03T03:43:13.154Z,7.80
2022-08-03T03:45:43.835Z,6.38
2022-08-03T03:48:11.173Z,4.82
2022-08-03T03:50:41.120Z,4.68
2022-08-03T03:53:13.313Z,3.95
2022-08-03T03:56:02.114Z,5.85
2022-08-03T03:58:28.579Z,5.13
2022-08-03T04:00:55.487Z,5.65
2022-08-03T04:03:22.492Z,4.57
2022-08-03T04:06:09.878Z,5.43
2022-08-03T04:08:55.074Z,7.47
2022-08-03T04:11:30.382Z,3.33
2022-08-03T04:14:23.600Z,3.40
2022-08-03T04:16:57.481Z,6.53
2022-08-03T04:19:32.701Z,4.47
2022-08-03T04:22:04.429Z,2.72
2022-08-03T04:24:38.352Z,4.53
2022-08-03T04:27:10.341Z,7.22
2022-08-03T04:29:44.830Z,4.35
2022-08-03T04:32:16.696Z,2.03
2022-08-03T04:34:44.421Z,4.43
2022-08-03T04:37:39.144Z,2.95
2022-08-03T04:40:11.059Z,3.17
2022-08-03T04:42:39.709Z,2.90
2022-08-03T04:45:08.547Z,2.90
2022-08-03T04:47:36.440Z,4.53
2022-08-03T04:50:09.154Z,3.85
2022-08-03T04:52:39.463Z,3.67
2022-08-03T04:55:07.007Z,3.63
2022-08-03T04:57:33.916Z,3.17
2022-08-03T05:00:03.443Z,3.70
2022-08-03T05:02:32.333Z,4.15
2022-08-03T05:05:00.240Z,4.25
2022-08-03T05:07:35.904Z,3.85
2022-08-03T05:10:15.139Z,5.65
2022-08-03T05:12:43.384Z,4.28
2022-08-03T05:15:10.925Z,2.63
2022-08-03T05:17:37.726Z,2.58
2022-08-03T05:20:05.620Z,3.58
2022-08-03T05:22:32.600Z,2.67
2022-08-03T05:25:01.404Z,3.88
2022-08-03T05:27:31.471Z,5.20
2022-08-03T05:30:32.594Z,5.13
2022-08-03T05:32:45.154Z,5.38
2022-08-03T05:36:01.382Z,2.60
2022-08-03T05:37:59.253Z,4.15
2022-08-03T05:40:27.044Z,2.35
2022-08-03T05:42:53.978Z,3.70
2022-08-03T05:45:23.251Z,4.55
2022-08-03T05:47:53.567Z,6.70
2022-08-03T05:50:21.352Z,3.38
2022-08-03T05:52:48.684Z,3.70
2022-08-03T05:55:16.838Z,3.47
2022-08-03T05:57:46.264Z,2.92
2022-08-03T06:00:13.681Z,2.95
2022-08-03T06:02:43.255Z,2.90
2022-08-03T06:05:10.669Z,3.40
2022-08-03T06:07:37.989Z,1.13
2022-08-03T06:10:36.859Z,1.45
2022-08-03T06:12:52.885Z,1.70
2022-08-03T06:15:20.636Z,1.25
2022-08-03T06:17:49.772Z,2.00
2022-08-03T06:20:19.413Z,2.17
2022-08-03T06:22:50.822Z,1.77
2022-08-03T06:25:27.495Z,2.75
2022-08-03T06:27:54.277Z,2.35
2022-08-03T06:30:21.609Z,1.75
2022-08-03T06:32:52.218Z,1.25
2022-08-03T06:35:20.139Z,0.95
2022-08-03T06:37:51.833Z,2.25
2022-08-03T06:40:28.659Z,1.63
2022-08-03T06:43:01.578Z,3.15
2022-08-03T06:45:31.749Z,1.27
2022-08-03T06:48:13.162Z,2.65
2022-08-03T06:50:42.688Z,2.00
2022-08-03T06:53:19.261Z,1.98
2022-08-03T06:55:53.863Z,1.17
2022-08-03T06:58:21.629Z,1.55
2022-08-03T07:00:48.653Z,1.60
2022-08-03T07:03:16.227Z,1.67
2022-08-03T07:05:44.015Z,2.42
2022-08-03T07:08:10.908Z,2.22
2022-08-03T07:10:38.116Z,3.03
2022-08-03T07:13:06.326Z,1.88
2022-08-03T07:15:55.049Z,2.83
2022-08-03T07:18:25.629Z,3.90
2022-08-03T07:20:57.348Z,1.98
2022-08-03T07:23:24.362Z,4.80
2022-08-03T07:25:51.230Z,2.03
2022-08-03T07:28:18.381Z,3.20
2022-08-03T07:30:45.292Z,1.95
2022-08-03T07:33:12.205Z,3.08
2022-08-03T07:35:39.769Z,2.63
2022-08-03T07:38:07.082Z,3.40
2022-08-03T07:40:34.014Z,2.90
2022-08-03T07:43:03.416Z,3.25
2022-08-03T07:45:31.620Z,4.35
2022-08-03T07:47:58.651Z,3.47
2022-08-03T07:50:25.719Z,2.50
2022-08-03T07:52:54.193Z,2.10
2022-08-03T07:55:24.173Z,7.88
2022-08-03T07:58:19.197Z,4.25
2022-08-03T08:00:51.100Z,3.70
2022-08-03T08:03:18.009Z,3.38
2022-08-03T08:05:45.572Z,3.13
2022-08-03T08:08:12.428Z,3.72
2022-08-03T08:10:39.468Z,3.00
2022-08-03T08:13:06.641Z,3.00
2022-08-03T08:15:33.785Z,2.17
2022-08-03T08:18:02.567Z,2.97
2022-08-03T08:20:34.965Z,4.35
2022-08-03T08:23:25.492Z,4.07
2022-08-03T08:25:56.884Z,2.97
2022-08-03T08:28:32.176Z,5.70
2022-08-03T08:31:02.035Z,3.47
2022-08-03T08:33:37.629Z,3.22
2022-08-03T08:36:14.789Z,4.13
2022-08-03T08:38:42.883Z,5.85
2022-08-03T08:41:11.953Z,5.07
2022-08-03T08:43:39.109Z,3.10
2022-08-03T08:46:08.560Z,6.07
2022-08-03T08:48:42.005Z,3.75
2022-08-03T08:51:10.061Z,4.47
2022-08-03T08:53:38.680Z,5.97
2022-08-03T08:56:07.468Z,6.65
2022-08-03T08:58:39.438Z,3.58
2022-08-03T09:01:06.520Z,4.15
2022-08-03T09:03:34.560Z,3.30
2022-08-03T09:06:02.692Z,4.82
2022-08-03T09:08:31.836Z,5.05
2022-08-03T09:10:59.232Z,3.67
2022-08-03T09:13:26.428Z,5.32
2022-08-03T09:16:28.753Z,5.28
2022-08-03T09:18:55.843Z,5.47
2022-08-03T09:21:34.655Z,6.18
2022-08-03T09:24:06.132Z,5.03
2022-08-03T09:26:38.279Z,4.35
2022-08-03T09:29:13.934Z,7.18
2022-08-03T09:31:46.143Z,3.95
2022-08-03T09:34:16.631Z,5.00
2022-08-03T09:36:49.694Z,3.60
2022-08-03T09:39:41.770Z,4.30
2022-08-03T09:42:15.670Z,3.60
2022-08-03T09:44:49.116Z,3.15
2022-08-03T09:47:37.756Z,6.00
2022-08-03T09:50:13.086Z,3.47
2022-08-03T09:52:49.344Z,8.32
2022-08-03T09:56:30.512Z,4.40
2022-08-03T09:58:10.661Z,4.95
2022-08-03T10:01:24.307Z,4.20
2022-08-03T10:04:04.483Z,4.05
2022-08-03T10:06:32.389Z,6.80
2022-08-03T10:09:17.409Z,3.03
2022-08-03T10:11:47.001Z,4.43
2022-08-03T10:14:20.114Z,4.90
2022-08-03T10:16:49.360Z,4.43
2022-08-03T10:19:17.035Z,4.70
2022-08-03T10:21:55.607Z,7.40
2022-08-03T10:24:27.406Z,4.82
2022-08-03T10:27:04.684Z,4.57
2022-08-03T10:29:39.055Z,4.90
2022-08-03T10:32:16.170Z,7.95
2022-08-03T10:34:45.307Z,3.70
2022-08-03T10:37:16.395Z,4.10
2022-08-03T10:39:54.497Z,4.90
2022-08-03T10:42:24.943Z,5.68
2022-08-03T10:45:06.351Z,4.88
2022-08-03T10:47:36.428Z,3.67
2022-08-03T10:50:04.332Z,3.38
2022-08-03T10:52:32.981Z,4.90
2022-08-03T10:55:21.392Z,7.85
2022-08-03T10:57:58.845Z,3.55
2022-08-03T11:00:30.287Z,5.00
2022-08-03T11:03:04.489Z,3.38
2022-08-03T11:05:37.028Z,3.70
2022-08-03T11:08:28.375Z,4.32
2022-08-03T11:11:19.885Z,3.83
2022-08-03T11:14:10.434Z,4.43
2022-08-03T11:16:48.442Z,5.25
2022-08-03T11:19:20.254Z,4.28
2022-08-03T11:21:51.213Z,3.95
2022-08-03T11:24:36.547Z,4.78
2022-08-03T11:27:18.999Z,7.35
2022-08-03T11:30:02.140Z,8.00
2022-08-03T11:32:37.621Z,3.95
2022-08-03T11:35:09.338Z,4.53
2022-08-03T11:37:37.464Z,3.35
2022-08-03T11:40:06.355Z,3.67
2022-08-03T11:42:36.693Z,5.40
2022-08-03T11:45:08.426Z,3.30
2022-08-03T11:47:50.125Z,3.53
2022-08-03T11:50:19.373Z,4.55
2022-08-03T11:52:46.356Z,3.90
2022-08-03T11:55:17.059Z,4.63
2022-08-03T11:59:02.757Z,4.18
2022-08-03T12:00:33.735Z,3.55
2022-08-03T12:03:04.964Z,6.90
2022-08-03T12:05:51.403Z,4.05
2022-08-03T12:08:39.423Z,4.75
2022-08-03T12:11:09.116Z,4.05
2022-08-03T12:14:45.351Z,5.90
2022-08-03T12:16:38.293Z,3.38
2022-08-03T12:19:09.418Z,3.17
2022-08-03T12:21:57.298Z,4.93
2022-08-03T12:24:24.785Z,4.30
2022-08-03T12:26:59.572Z,4.05
2022-08-03T12:29:27.524Z,6.47
2022-08-03T12:31:56.083Z,7.32
2022-08-03T12:34:23.301Z,5.57
2022-08-03T12:36:56.695Z,3.53
2022-08-03T12:39:26.481Z,3.95
2022-08-03T12:41:55.348Z,3.33
2022-08-03T12:44:35.471Z,2.67
2022-08-03T12:47:06.788Z,6.07
2022-08-03T12:50:06.293Z,3.55
2022-08-03T12:52:45.229Z,4.35
2022-08-03T12:55:21.809Z,5.40
2022-08-03T12:57:49.469Z,6.47
2022-08-03T13:00:28.978Z,4.93
2022-08-03T13:05:54.337Z,5.43
2022-08-03T13:08:23.990Z,4.88
2022-08-03T13:10:51.806Z,4.15
2022-08-03T13:13:20.916Z,5.40
2022-08-03T13:15:48.347Z,3.88
2022-08-03T13:18:17.551Z,7.07
2022-08-03T13:20:44.731Z,5.20
2022-08-03T13:23:15.514Z,6.10
2022-08-03T13:25:55.102Z,3.10
2022-08-03T13:28:23.498Z,4.82
2022-08-03T13:30:50.434Z,5.05
2022-08-03T13:33:18.048Z,6.80
2022-08-03T13:35:45.300Z,6.90
2022-08-03T13:38:12.230Z,6.38
2022-08-03T13:40:42.132Z,7.90
2022-08-03T13:43:09.196Z,6.38
2022-08-03T13:45:36.171Z,6.93
2022-08-03T13:48:03.044Z,4.93
2022-08-03T13:50:31.713Z,4.05
2022-08-03T13:52:58.730Z,5.05
2022-08-03T13:55:25.992Z,5.95
2022-08-03T13:58:04.970Z,5.15
2022-08-03T14:00:34.730Z,3.15
2022-08-03T14:03:12.572Z,3.58
2022-08-03T14:05:41.681Z,3.90
2022-08-03T14:08:09.487Z,2.85
2022-08-03T14:10:38.856Z,4.00
2022-08-03T14:13:06.778Z,2.42
2022-08-03T14:15:37.557Z,3.97
2022-08-03T14:18:05.087Z,5.57
2022-08-03T14:20:38.868Z,4.57
2022-08-03T14:23:15.842Z,5.68
2022-08-03T14:25:50.480Z,4.13
2022-08-03T14:28:28.866Z,2.83
2022-08-03T14:30:58.851Z,5.13
2022-08-03T14:33:25.810Z,7.47
2022-08-03T14:35:53.571Z,8.75
2022-08-03T14:38:21.559Z,3.97
2022-08-03T14:40:49.452Z,4.72
2022-08-03T14:43:18.243Z,3.08
2022-08-03T14:45:45.268Z,4.03
2022-08-03T14:50:32.311Z,4.15
2022-08-03T14:50:59.890Z,4.57
2022-08-03T14:53:26.871Z,7.38
2022-08-03T14:55:53.779Z,5.60
2022-08-03T14:58:23.115Z,3.83
2022-08-03T15:00:55.596Z,4.63
2022-08-03T15:03:25.074Z,4.53
2022-08-03T15:05:56.970Z,3.78
2022-08-03T15:08:25.756Z,5.93
2022-08-03T15:10:54.432Z,3.78
2022-08-03T15:13:22.421Z,3.33
2022-08-03T15:15:50.076Z,4.53
2022-08-03T15:18:17.715Z,5.45
2022-08-03T15:20:46.390Z,5.65
2022-08-03T15:23:15.778Z,3.20
2022-08-03T15:26:27.884Z,5.15
2022-08-03T15:28:34.289Z,3.97
2022-08-03T15:31:04.882Z,4.40
2022-08-03T15:33:31.783Z,5.10
2022-08-03T15:36:00.150Z,4.15
2022-08-03T15:38:27.144Z,4.00
2022-08-03T15:40:55.327Z,6.25
2022-08-03T15:43:23.410Z,4.57
2022-08-03T15:46:12.702Z,4.53
2022-08-03T15:48:38.113Z,3.42
2022-08-03T15:51:05.637Z,4.65
2022-08-03T15:53:33.784Z,5.70
2022-08-03T15:56:03.292Z,5.15
2022-08-03T15:59:09.574Z,4.95
2022-08-03T16:01:20.645Z,4.53
2022-08-03T16:03:47.591Z,7.50
2022-08-03T16:06:14.535Z,5.85
2022-08-03T16:08:41.363Z,4.97
2022-08-03T16:11:11.812Z,5.28
2022-08-03T16:14:12.810Z,7.57
2022-08-03T16:16:25.669Z,2.85
2022-08-03T16:18:52.820Z,3.30
2022-08-03T16:21:21.660Z,4.97
2022-08-03T16:23:49.038Z,5.97
2022-08-03T16:26:15.928Z,5.13
2022-08-03T16:28:42.760Z,3.17
2022-08-03T16:31:09.775Z,6.18
2022-08-03T16:33:37.314Z,5.72
2022-08-03T16:36:04.390Z,5.20
2022-08-03T16:38:31.698Z,4.35
2022-08-03T16:40:58.634Z,6.10
2022-08-03T16:43:25.921Z,5.10
2022-08-03T16:45:53.156Z,5.32
2022-08-03T16:48:20.213Z,4.57
2022-08-03T16:50:49.125Z,6.40
2022-08-03T16:53:16.918Z,4.30
2022-08-03T16:55:53.193Z,6.18
2022-08-03T16:58:42.689Z,7.00
2022-08-03T17:01:22.098Z,6.68
2022-08-03T17:04:03.034Z,8.32
2022-08-03T17:06:36.462Z,4.65
2022-08-03T17:09:19.069Z,6.70
2022-08-03T17:11:50.795Z,5.55
2022-08-03T17:14:22.875Z,7.07
2022-08-03T17:17:03.713Z,4.05
2022-08-03T17:19:32.808Z,7.38
2022-08-03T17:22:08.570Z,6.68
2022-08-03T17:24:42.380Z,6.05
2022-08-03T17:28:42.346Z,5.13
2022-08-03T17:30:11.972Z,5.57
2022-08-03T17:32:52.674Z,7.57
2022-08-03T17:35:36.600Z,7.40
2022-08-03T17:38:10.411Z,4.32
2022-08-03T17:40:48.059Z,6.63
2022-08-03T17:44:12.901Z,6.05
2022-08-03T17:46:07.139Z,7.68
2022-08-03T17:48:34.705Z,4.97
2022-08-03T17:51:50.176Z,5.97
2022-08-03T17:55:55.502Z,5.97
2022-08-03T17:58:04.515Z,7.22
2022-08-03T18:00:51.708Z,7.20
2022-08-03T18:03:57.054Z,5.80
2022-08-03T18:06:31.480Z,5.68
2022-08-03T18:08:59.970Z,7.43
2022-08-03T18:11:37.130Z,3.60
2022-08-03T18:14:33.894Z,8.32
2022-08-03T18:17:10.455Z,7.32
2022-08-03T18:20:02.081Z,8.07
2022-08-03T18:22:27.757Z,9.93
2022-08-03T18:24:59.739Z,8.25
2022-08-03T18:27:45.425Z,6.40
2022-08-03T18:30:16.123Z,6.20
2022-08-03T18:32:44.390Z,10.05
2022-08-03T18:35:28.613Z,10.55
2022-08-03T18:38:16.795Z,7.00
2022-08-03T18:40:49.198Z,8.63
2022-08-03T18:43:17.705Z,8.23
2022-08-03T18:45:57.614Z,9.27
2022-08-03T18:48:49.281Z,11.77
2022-08-03T18:51:33.809Z,7.80
2022-08-03T18:54:46.578Z,13.20
2022-08-03T18:57:13.496Z,10.88
2022-08-03T19:00:16.429Z,10.07
2022-08-03T19:03:05.954Z,7.75
2022-08-03T19:05:56.266Z,15.18
2022-08-03T19:08:48.347Z,8.85
2022-08-03T19:12:12.593Z,11.73
2022-08-03T19:14:39.285Z,8.30
2022-08-03T19:17:12.277Z,10.57
2022-08-03T19:19:45.296Z,13.88
2022-08-03T19:22:15.982Z,11.20
2022-08-03T19:24:46.492Z,9.27
2022-08-03T19:27:16.450Z,6.55
2022-08-03T19:29:58.780Z,11.07
2022-08-03T19:32:33.068Z,8.25
2022-08-03T19:35:02.638Z,8.70
2022-08-03T19:37:37.983Z,13.43
2022-08-03T19:40:10.438Z,12.40
2022-08-03T19:42:45.208Z,8.57
2022-08-03T19:45:20.675Z,5.72
2022-08-03T19:47:59.602Z,7.72
2022-08-03T19:50:30.074Z,9.88
2022-08-03T19:53:00.735Z,7.00
2022-08-03T19:55:32.257Z,10.25
2022-08-03T19:58:01.411Z,9.38
2022-08-03T20:00:34.025Z,7.15
2022-08-03T20:03:06.838Z,9.02
2022-08-03T20:05:51.888Z,4.82
2022-08-03T20:08:22.167Z,8.35
2022-08-03T20:10:50.055Z,6.93
2022-08-03T20:13:19.619Z,7.78
2022-08-03T20:15:46.880Z,8.25
2022-08-03T20:18:16.815Z,7.10
2022-08-03T20:20:49.476Z,5.40
2022-08-03T20:23:20.357Z,10.38
2022-08-03T20:28:51.278Z,6.07
2022-08-03T20:31:23.819Z,10.93
2022-08-03T20:34:00.672Z,6.90
2022-08-03T20:36:28.005Z,11.98
2022-08-03T20:38:57.705Z,11.48
2022-08-03T20:41:25.311Z,7.93
2022-08-03T20:43:52.349Z,9.48
2022-08-03T20:46:32.105Z,11.00
2022-08-03T20:49:04.929Z,10.07
2022-08-03T20:51:49.926Z,6.25
2022-08-03T20:54:30.491Z,11.70
2022-08-03T20:57:03.893Z,10.32
2022-08-03T20:59:47.162Z,7.55
2022-08-03T21:02:28.901Z,7.90
2022-08-03T21:04:56.501Z,12.15
2022-08-03T21:07:24.941Z,12.00
2022-08-03T21:10:15.381Z,9.70
2022-08-03T21:13:12.823Z,10.60
2022-08-03T21:13:13.182Z,7.55
2022-08-03T21:16:06.139Z,11.23
2022-08-03T21:18:32.755Z,7.47
2022-08-03T21:21:01.332Z,8.65
2022-08-03T21:23:40.269Z,7.90
2022-08-03T21:26:19.041Z,7.78
2022-08-03T21:28:49.014Z,10.45
2022-08-03T21:31:22.367Z,7.35
2022-08-03T21:34:04.649Z,10.05
2022-08-03T21:36:36.152Z,7.65
2022-08-03T21:39:08.205Z,11.40
2022-08-03T21:41:38.503Z,12.63
2022-08-03T21:44:07.317Z,10.43
2022-08-03T21:46:38.018Z,9.88
2022-08-03T21:50:05.120Z,7.47
2022-08-03T21:52:00.335Z,7.70
2022-08-03T21:54:41.961Z,11.45
2022-08-03T21:57:41.875Z,9.75
2022-08-03T22:00:17.832Z,9.32
2022-08-03T22:02:54.511Z,9.63
2022-08-03T22:05:28.919Z,11.93
2022-08-03T22:08:04.560Z,9.50
2022-08-03T22:10:31.616Z,10.10
2022-08-03T22:12:58.627Z,8.73
2022-08-03T22:15:25.712Z,9.70
2022-08-03T22:17:55.173Z,14.60
2022-08-03T22:20:25.231Z,11.95
2022-08-03T22:22:56.612Z,9.10
2022-08-03T22:25:36.691Z,11.38
2022-08-03T22:28:10.180Z,12.73
2022-08-03T22:30:38.678Z,14.15
2022-08-03T22:33:11.692Z,12.00
2022-08-03T22:35:50.193Z,11.57
2022-08-03T22:38:19.166Z,8.70
2022-08-03T22:40:49.111Z,12.43
2022-08-03T22:43:16.901Z,12.70
2022-08-03T22:46:09.292Z,11.80
2022-08-03T22:48:40.978Z,8.38
2022-08-03T22:51:09.230Z,11.32
2022-08-03T22:53:36.822Z,12.23
2022-08-03T22:56:04.032Z,11.10
2022-08-03T22:58:30.888Z,8.27
2022-08-03T23:01:10.558Z,10.70
2022-08-03T23:03:59.877Z,10.20
2022-08-03T23:06:42.794Z,12.07
2022-08-03T23:09:13.563Z,10.10
2022-08-03T23:11:46.019Z,10.30
2022-08-03T23:14:16.108Z,11.48
2022-08-03T23:16:45.442Z,8.85
2022-08-03T23:19:17.058Z,12.88
2022-08-03T23:22:02.370Z,11.88
2022-08-03T23:24:34.217Z,7.18
2022-08-03T23:27:06.957Z,10.18
2022-08-03T23:29:42.647Z,11.48
2022-08-03T23:32:10.850Z,9.27
2022-08-03T23:34:58.689Z,12.07
2022-08-03T23:37:26.519Z,7.95
2022-08-03T23:39:55.072Z,7.13
2022-08-03T23:42:22.004Z,12.48
2022-08-03T23:44:55.724Z,8.18
2022-08-03T23:47:23.737Z,11.38
2022-08-03T23:49:50.723Z,9.35
2022-08-03T23:52:53.645Z,9.75
2022-08-03T23:55:44.737Z,15.90
2022-08-03T23:59:02.781Z,9.10
